Time;durP1;ratioP1;P1;durP2;ratioP2;P2;SDS_P1;SDS_P2;PMS_P1;PMS_P2;Temp;Humidity;BMP_temperature;BMP_pressure;BME280_temperature;BME280_humidity;BME280_pressure;Samples;Min_cycle;Max_cycle;Signal;HPM_P1;HPM_P2
2021/11/21 00:01:32;;;;;;;7.83;6.63;;;9.50;99.90;;;;;;4890243;29;20253;-80
2021/11/21 00:04:01;;;;;;;10.37;6.83;;;9.50;99.90;;;;;;4891158;29;20233;-80
2021/11/21 00:06:30;;;;;;;12.50;6.83;;;9.50;99.90;;;;;;4896826;29;20237;-80
2021/11/21 00:08:58;;;;;;;10.70;6.97;;;9.50;99.90;;;;;;4890071;29;20713;-80
2021/11/21 00:11:26;;;;;;;9.97;6.77;;;9.50;99.90;;;;;;4887351;29;20250;-81
2021/11/21 00:13:54;;;;;;;9.07;6.47;;;9.50;99.90;;;;;;4889325;29;20332;-80
2021/11/21 00:16:22;;;;;;;9.17;6.73;;;9.50;99.90;;;;;;4889569;29;20238;-80
2021/11/21 00:18:50;;;;;;;10.87;6.93;;;9.50;99.90;;;;;;4889659;29;20256;-81
2021/11/21 00:21:20;;;;;;;8.17;7.37;;;9.50;99.90;;;;;;4889030;29;20244;-80
2021/11/21 00:23:48;;;;;;;8.97;6.23;;;9.50;99.90;;;;;;4882759;29;20643;-80
2021/11/21 00:26:16;;;;;;;10.10;5.97;;;9.50;99.90;;;;;;4890422;29;20245;-81
2021/11/21 00:28:44;;;;;;;9.53;6.53;;;9.50;99.90;;;;;;4882395;29;20242;-80
2021/11/21 00:31:13;;;;;;;10.30;6.13;;;9.50;99.90;;;;;;4890176;29;20249;-80
2021/11/21 00:33:41;;;;;;;14.40;7.10;;;9.50;99.90;;;;;;4890073;29;20311;-80
2021/11/21 00:36:09;;;;;;;12.37;7.10;;;9.50;99.90;;;;;;4890599;29;20257;-80
2021/11/21 00:38:39;;;;;;;9.13;6.40;;;9.50;99.90;;;;;;4897893;29;20240;-80
2021/11/21 00:41:08;;;;;;;7.73;6.93;;;9.50;99.90;;;;;;4891749;29;20241;-80
2021/11/21 00:43:36;;;;;;;12.50;6.97;;;9.50;99.90;;;;;;4893253;29;20241;-80
2021/11/21 00:46:04;;;;;;;7.63;5.80;;;9.50;99.90;;;;;;4894345;29;20285;-80
2021/11/21 00:48:35;;;;;;;7.43;6.20;;;9.60;99.90;;;;;;4893220;29;20710;-80
2021/11/21 00:51:04;;;;;;;13.23;6.27;;;9.50;99.90;;;;;;4893427;29;20320;-80
2021/11/21 00:53:32;;;;;;;9.70;6.13;;;9.50;99.90;;;;;;4893216;29;20595;-80
2021/11/21 00:56:04;;;;;;;9.90;6.20;;;9.50;99.90;;;;;;4893920;29;20263;-80
2021/11/21 00:58:43;;;;;;;7.75;6.32;;;9.60;99.90;;;;;;1969321;29;10024188;-80
2021/11/21 01:01:12;;;;;;;8.07;5.97;;;9.60;99.90;;;;;;4213990;29;10001042;-80
2021/11/21 01:03:41;;;;;;;10.47;6.60;;;9.60;99.90;;;;;;4892614;29;20249;-80
2021/11/21 01:06:11;;;;;;;9.23;5.70;;;9.50;99.90;;;;;;4893649;29;20710;-80
2021/11/21 01:08:39;;;;;;;9.67;6.00;;;9.60;99.90;;;;;;4890055;29;20245;-80
2021/11/21 01:11:09;;;;;;;8.80;6.20;;;9.50;99.90;;;;;;4888385;29;20233;-80
2021/11/21 01:13:38;;;;;;;7.17;6.30;;;9.60;99.90;;;;;;4887808;29;20269;-80
2021/11/21 01:16:07;;;;;;;8.97;6.80;;;9.60;99.90;;;;;;4891201;29;20273;-80
2021/11/21 01:18:36;;;;;;;9.43;6.03;;;9.60;99.90;;;;;;4892547;29;20240;-80
2021/11/21 01:21:07;;;;;;;11.23;6.93;;;9.60;99.90;;;;;;4892145;29;20245;-80
2021/11/21 01:23:35;;;;;;;7.50;6.07;;;9.50;99.90;;;;;;4893055;29;20245;-80
2021/11/21 01:26:04;;;;;;;7.53;6.20;;;9.60;99.90;;;;;;4893610;29;20243;-82
2021/11/21 01:28:33;;;;;;;10.10;6.40;;;9.60;99.90;;;;;;4890965;29;20618;-80
2021/11/21 01:31:02;;;;;;;9.60;6.30;;;9.60;99.90;;;;;;4887289;29;20705;-80
2021/11/21 01:33:30;;;;;;;11.83;6.73;;;9.60;99.90;;;;;;4892610;29;20238;-80
2021/11/21 01:35:58;;;;;;;9.03;6.53;;;9.60;99.90;;;;;;4893245;29;20233;-80
2021/11/21 01:38:27;;;;;;;11.40;6.67;;;9.60;99.90;;;;;;4891594;29;20259;-80
2021/11/21 01:40:55;;;;;;;7.37;6.53;;;9.60;99.90;;;;;;4892937;29;20241;-80
2021/11/21 01:43:23;;;;;;;10.63;7.30;;;9.60;99.90;;;;;;4892087;29;20597;-80
2021/11/21 01:45:53;;;;;;;8.83;7.23;;;9.60;99.90;;;;;;4893092;29;20265;-80
2021/11/21 01:48:21;;;;;;;9.13;7.20;;;9.60;99.90;;;;;;4892601;29;20325;-80
2021/11/21 01:50:50;;;;;;;9.57;7.37;;;9.60;99.90;;;;;;4892341;29;20236;-80
2021/11/21 01:53:18;;;;;;;8.03;6.90;;;9.60;99.90;;;;;;4894668;29;20714;-80
2021/11/21 01:55:48;;;;;;;8.97;7.50;;;9.60;99.90;;;;;;4892215;29;20785;-80
2021/11/21 01:58:17;;;;;;;9.60;7.27;;;9.60;99.90;;;;;;4892180;29;20265;-80
2021/11/21 02:00:47;;;;;;;10.63;7.53;;;9.60;99.90;;;;;;4884425;29;20253;-80
2021/11/21 02:03:18;;;;;;;9.83;7.40;;;9.60;99.90;;;;;;4891999;29;20246;-81
2021/11/21 02:05:48;;;;;;;11.03;7.50;;;9.60;99.90;;;;;;4885201;29;20311;-80
2021/11/21 02:08:16;;;;;;;9.87;7.73;;;9.70;99.90;;;;;;4891351;29;20277;-80
2021/11/21 02:10:45;;;;;;;8.83;7.60;;;9.60;99.90;;;;;;4891111;29;20272;-80
2021/11/21 02:13:13;;;;;;;10.23;6.97;;;9.60;99.90;;;;;;4891890;29;20245;-80
2021/11/21 02:15:44;;;;;;;11.83;7.63;;;9.60;99.90;;;;;;4892524;29;20237;-81
2021/11/21 02:18:14;;;;;;;8.83;7.83;;;9.60;99.90;;;;;;4892041;29;20325;-80
2021/11/21 02:20:48;;;;;;;9.70;8.00;;;9.60;99.90;;;;;;4891326;29;20252;-80
2021/11/21 02:23:17;;;;;;;8.70;7.77;;;9.60;99.90;;;;;;4891877;29;20245;-80
2021/11/21 02:25:46;;;;;;;10.67;8.10;;;9.60;99.90;;;;;;4891296;29;20252;-80
2021/11/21 02:28:14;;;;;;;10.10;7.90;;;9.60;99.90;;;;;;4891647;29;20249;-80
2021/11/21 02:30:44;;;;;;;10.57;7.90;;;9.60;99.90;;;;;;4894167;29;20922;-80
2021/11/21 02:33:14;;;;;;;12.93;8.33;;;9.60;99.90;;;;;;4890989;29;20237;-79
2021/11/21 02:35:45;;;;;;;11.00;8.67;;;9.50;99.90;;;;;;4897596;29;20297;-80
2021/11/21 02:38:18;;;;;;;9.23;8.27;;;9.50;99.90;;;;;;4891646;29;20245;-80
2021/11/21 02:40:48;;;;;;;9.60;8.20;;;9.50;99.90;;;;;;4887200;29;20237;-80
2021/11/21 02:43:18;;;;;;;11.60;9.13;;;9.50;99.90;;;;;;4891229;29;20249;-80
2021/11/21 02:45:48;;;;;;;9.33;8.43;;;9.50;99.90;;;;;;4884194;29;20274;-80
2021/11/21 02:48:17;;;;;;;10.80;8.40;;;9.50;99.90;;;;;;4891321;29;20704;-80
2021/11/21 02:50:46;;;;;;;10.73;8.33;;;9.50;99.90;;;;;;4886323;29;20245;-80
2021/11/21 02:53:17;;;;;;;10.00;8.43;;;9.50;99.90;;;;;;4891234;29;20659;-80
2021/11/21 02:55:45;;;;;;;9.20;8.30;;;9.50;99.90;;;;;;4890133;29;20237;-80
2021/11/21 02:58:27;;;;;;;8.60;7.70;;;9.50;99.90;;;;;;2359957;29;10022819;-80
2021/11/21 03:00:56;;;;;;;8.83;7.93;;;9.50;99.90;;;;;;3875531;29;10001088;-81
2021/11/21 03:03:25;;;;;;;9.57;8.27;;;9.50;99.90;;;;;;4889888;29;20656;-79
2021/11/21 03:05:54;;;;;;;10.03;8.80;;;9.50;99.90;;;;;;4896706;29;20233;-80
2021/11/21 03:08:23;;;;;;;11.30;8.30;;;9.50;99.90;;;;;;4888905;29;20900;-80
2021/11/21 03:10:53;;;;;;;8.70;7.80;;;9.50;99.90;;;;;;4888461;29;20255;-80
2021/11/21 03:13:21;;;;;;;8.63;7.67;;;9.50;99.90;;;;;;4888570;29;20728;-80
2021/11/21 03:15:50;;;;;;;7.73;7.03;;;9.50;99.90;;;;;;4888802;29;21039;-80
2021/11/21 03:18:19;;;;;;;8.23;6.97;;;9.50;99.90;;;;;;4889033;29;20233;-80
2021/11/21 03:20:49;;;;;;;8.30;7.43;;;9.50;99.90;;;;;;4887807;29;20631;-80
2021/11/21 03:23:17;;;;;;;8.97;6.80;;;9.50;99.90;;;;;;4888447;29;20639;-80
2021/11/21 03:25:47;;;;;;;8.57;6.60;;;9.40;99.90;;;;;;4888631;29;20245;-80
2021/11/21 03:28:16;;;;;;;7.00;5.90;;;9.40;99.90;;;;;;4887554;29;20248;-80
2021/11/21 03:30:45;;;;;;;7.50;6.50;;;9.40;99.90;;;;;;4887086;29;20241;-80
2021/11/21 03:33:13;;;;;;;7.07;6.37;;;9.40;99.90;;;;;;4888601;29;20245;-80
2021/11/21 03:35:41;;;;;;;8.60;6.47;;;9.40;99.90;;;;;;4887829;29;20308;-80
2021/11/21 03:38:10;;;;;;;6.70;6.00;;;9.40;99.90;;;;;;4889507;29;20249;-80
2021/11/21 03:40:38;;;;;;;8.07;6.77;;;9.40;99.90;;;;;;4888369;29;20247;-81
2021/11/21 03:43:07;;;;;;;7.80;6.03;;;9.40;99.90;;;;;;4890461;29;20269;-80
2021/11/21 03:45:36;;;;;;;5.93;5.17;;;9.40;99.90;;;;;;4891052;29;20273;-80
2021/11/21 03:48:05;;;;;;;7.40;6.20;;;9.40;99.90;;;;;;4890817;29;20241;-80
2021/11/21 03:50:34;;;;;;;6.20;5.60;;;9.40;99.90;;;;;;4889294;29;20275;-80
2021/11/21 03:53:03;;;;;;;7.60;5.37;;;9.40;99.90;;;;;;4890459;29;20234;-80
2021/11/21 03:55:31;;;;;;;5.93;5.33;;;9.30;99.90;;;;;;4890864;29;20762;-80
2021/11/21 03:57:59;;;;;;;6.23;5.03;;;9.40;99.90;;;;;;4890026;29;20241;-80
2021/11/21 04:00:28;;;;;;;6.00;5.40;;;9.40;99.90;;;;;;4890611;29;20642;-80
2021/11/21 04:02:58;;;;;;;5.97;5.27;;;9.40;99.90;;;;;;4890081;29;20245;-80
2021/11/21 04:05:26;;;;;;;8.40;5.33;;;9.50;99.90;;;;;;4890888;29;20241;-80
2021/11/21 04:07:55;;;;;;;6.03;5.03;;;9.50;99.90;;;;;;4890372;29;20238;-80
2021/11/21 04:10:24;;;;;;;7.93;4.60;;;9.40;99.90;;;;;;4883321;29;20243;-79
2021/11/21 04:12:52;;;;;;;6.37;4.40;;;9.40;99.90;;;;;;4883165;29;20260;-79
2021/11/21 04:15:20;;;;;;;6.40;4.43;;;9.40;99.90;;;;;;4891637;29;20329;-79
2021/11/21 04:17:50;;;;;;;6.23;4.73;;;9.40;99.90;;;;;;4894135;29;20301;-80
2021/11/21 04:20:18;;;;;;;5.37;3.87;;;9.40;99.90;;;;;;4894270;29;20674;-80
2021/11/21 04:22:46;;;;;;;5.37;4.10;;;9.40;99.90;;;;;;4892358;29;20244;-80
2021/11/21 04:25:15;;;;;;;4.67;3.40;;;9.40;99.90;;;;;;4894535;29;20606;-80
2021/11/21 04:27:43;;;;;;;5.37;3.27;;;9.40;99.90;;;;;;4893540;29;20923;-79
2021/11/21 04:30:13;;;;;;;6.70;3.40;;;9.30;99.90;;;;;;4885052;29;20257;-81
2021/11/21 04:32:44;;;;;;;3.73;3.10;;;9.40;99.90;;;;;;4893691;29;20625;-81
2021/11/21 04:35:16;;;;;;;5.63;3.33;;;9.40;99.90;;;;;;4894621;29;20873;-79
2021/11/21 04:37:45;;;;;;;8.67;4.23;;;9.40;99.90;;;;;;4893465;29;20241;-80
2021/11/21 04:40:15;;;;;;;4.60;4.00;;;9.30;99.90;;;;;;4893503;29;20253;-80
2021/11/21 04:42:44;;;;;;;5.20;4.00;;;9.30;99.90;;;;;;4893006;29;20239;-80
2021/11/21 04:45:14;;;;;;;5.70;5.10;;;9.30;99.90;;;;;;4893948;29;20365;-80
2021/11/21 04:47:43;;;;;;;6.77;4.70;;;9.30;99.90;;;;;;4893761;29;20931;-80
2021/11/21 04:50:14;;;;;;;5.00;4.50;;;9.40;99.90;;;;;;4889103;29;20785;-80
2021/11/21 04:52:43;;;;;;;5.23;4.73;;;9.30;99.90;;;;;;4893769;29;20305;-80
2021/11/21 04:55:12;;;;;;;6.73;5.20;;;9.30;99.90;;;;;;4901272;29;20256;-80
2021/11/21 04:57:49;;;;;;;4.78;3.67;;;9.30;99.90;;;;;;3751005;29;10023802;-80
2021/11/21 05:00:19;;;;;;;6.55;4.72;;;9.30;99.90;;;;;;2357505;29;10001984;-80
2021/11/21 05:02:49;;;;;;;5.37;4.73;;;9.20;99.90;;;;;;4892246;29;20328;-80
2021/11/21 05:05:21;;;;;;;4.10;3.70;;;9.20;99.90;;;;;;4893501;29;20245;-80
2021/11/21 05:07:50;;;;;;;5.63;3.93;;;9.20;99.90;;;;;;4889508;29;20292;-80
2021/11/21 05:10:19;;;;;;;5.60;3.97;;;9.30;99.90;;;;;;4889443;29;20249;-79
2021/11/21 05:12:49;;;;;;;5.57;3.90;;;9.20;99.90;;;;;;4887923;29;20236;-80
2021/11/21 05:15:19;;;;;;;4.30;3.57;;;9.20;99.90;;;;;;4892306;29;20873;-80
2021/11/21 05:17:49;;;;;;;8.07;3.60;;;9.20;99.90;;;;;;4882738;29;20268;-80
2021/11/21 05:20:19;;;;;;;5.00;3.70;;;9.20;99.90;;;;;;4892665;29;20267;-80
2021/11/21 05:22:48;;;;;;;5.30;3.53;;;9.20;99.90;;;;;;4885039;29;20264;-80
2021/11/21 05:25:17;;;;;;;5.43;3.57;;;9.20;99.90;;;;;;4893274;29;20242;-80
2021/11/21 05:27:47;;;;;;;5.50;3.53;;;9.20;99.90;;;;;;4893110;29;21164;-80
2021/11/21 05:30:18;;;;;;;5.67;3.63;;;9.20;99.90;;;;;;4891799;29;20306;-80
2021/11/21 05:32:46;;;;;;;6.53;3.77;;;9.20;99.90;;;;;;4891685;29;20236;-80
2021/11/21 05:35:16;;;;;;;6.43;4.40;;;9.30;99.90;;;;;;4892689;29;20298;-80
2021/11/21 05:37:46;;;;;;;4.93;4.10;;;9.20;99.90;;;;;;4893862;29;20237;-80
2021/11/21 05:40:15;;;;;;;7.87;4.90;;;9.20;99.90;;;;;;4892458;29;20284;-81
2021/11/21 05:42:44;;;;;;;5.83;5.17;;;9.20;99.90;;;;;;4891577;29;20252;-79
2021/11/21 05:45:13;;;;;;;9.17;4.83;;;9.20;99.90;;;;;;4893077;29;20293;-81
2021/11/21 05:47:41;;;;;;;10.03;5.57;;;9.10;99.90;;;;;;4892521;29;20242;-80
2021/11/21 05:50:13;;;;;;;8.27;5.33;;;9.20;99.90;;;;;;4884729;29;20316;-80
2021/11/21 05:52:43;;;;;;;14.47;5.50;;;9.20;99.90;;;;;;4896744;29;20267;-80
2021/11/21 05:55:15;;;;;;;12.20;6.00;;;9.20;99.90;;;;;;4888035;29;20778;-80
2021/11/21 05:57:43;;;;;;;9.47;6.00;;;9.20;99.90;;;;;;4891621;29;20329;-80
2021/11/21 06:00:15;;;;;;;9.57;6.13;;;9.20;99.90;;;;;;4894721;29;20706;-80
2021/11/21 06:02:44;;;;;;;8.87;6.10;;;9.20;99.90;;;;;;4891599;29;20241;-80
2021/11/21 06:05:12;;;;;;;8.93;5.97;;;9.20;99.90;;;;;;4892487;29;20247;-80
2021/11/21 06:07:41;;;;;;;9.80;5.80;;;9.20;99.90;;;;;;4896525;29;20241;-80
2021/11/21 06:10:10;;;;;;;8.23;4.93;;;9.20;99.90;;;;;;4896155;29;20737;-80
2021/11/21 06:12:40;;;;;;;9.43;6.50;;;9.30;99.90;;;;;;4896164;29;20268;-80
2021/11/21 06:15:09;;;;;;;8.20;5.27;;;9.20;99.90;;;;;;4898336;29;20320;-80
2021/11/21 06:17:38;;;;;;;8.83;5.40;;;9.20;99.90;;;;;;4886704;29;20252;-80
2021/11/21 06:20:08;;;;;;;10.10;5.37;;;9.20;99.90;;;;;;4895355;29;20324;-79
2021/11/21 06:22:37;;;;;;;11.03;5.33;;;9.20;99.90;;;;;;4906713;29;20257;-80
2021/11/21 06:25:08;;;;;;;9.00;4.27;;;9.20;99.90;;;;;;4902902;29;20244;-79
2021/11/21 06:27:36;;;;;;;7.37;4.70;;;9.30;99.90;;;;;;4901454;29;20609;-80
2021/11/21 06:30:07;;;;;;;8.93;5.07;;;9.20;99.90;;;;;;4894881;29;20894;-79
2021/11/21 06:32:36;;;;;;;7.67;4.37;;;9.20;99.90;;;;;;4897229;29;20304;-79
2021/11/21 06:35:05;;;;;;;11.40;4.43;;;9.10;99.90;;;;;;4902950;29;20236;-79
2021/11/21 06:37:34;;;;;;;7.00;3.97;;;9.10;99.90;;;;;;4898865;29;20308;-80
2021/11/21 06:40:03;;;;;;;6.23;4.53;;;9.10;99.90;;;;;;4899982;29;20241;-79
2021/11/21 06:42:31;;;;;;;8.00;4.33;;;9.10;99.90;;;;;;4891018;29;20335;-80
2021/11/21 06:44:59;;;;;;;9.30;4.67;;;9.20;99.90;;;;;;4895583;29;20247;-79
2021/11/21 06:47:29;;;;;;;9.80;4.33;;;9.10;99.90;;;;;;4891302;29;20847;-80
2021/11/21 06:50:00;;;;;;;12.97;5.80;;;9.00;99.90;;;;;;4883621;29;20236;-79
2021/11/21 06:52:29;;;;;;;8.93;4.50;;;8.90;99.90;;;;;;4890163;29;20241;-79
2021/11/21 06:54:58;;;;;;;7.77;4.43;;;8.80;99.90;;;;;;4891444;29;20623;-79
2021/11/21 06:57:26;;;;;;;10.80;4.80;;;8.70;99.90;;;;;;4876729;29;20641;-79
2021/11/21 06:59:54;;;;;;;10.63;5.20;;;8.80;99.90;;;;;;4890664;29;20732;-79
2021/11/21 07:02:23;;;;;;;12.23;4.57;;;8.80;99.90;;;;;;4880712;29;20357;-79
2021/11/21 07:05:00;;;;;;;8.64;4.77;;;8.70;99.90;;;;;;4727225;29;10000753;-79
2021/11/21 07:07:29;;;;;;;10.05;4.90;;;8.60;99.90;;;;;;1344227;29;10002174;-79
2021/11/21 07:09:57;;;;;;;8.10;4.20;;;8.60;99.90;;;;;;4889266;29;20653;-79
2021/11/21 07:12:25;;;;;;;6.77;4.30;;;8.60;99.90;;;;;;4889291;29;20673;-80
2021/11/21 07:15:10;;;;;;;8.40;4.67;;;8.60;99.90;;;;;;4887496;29;20248;-80
2021/11/21 07:17:38;;;;;;;11.20;4.13;;;8.60;99.90;;;;;;4889196;29;20253;-79
2021/11/21 07:20:15;;;;;;;9.33;4.13;;;8.50;99.90;;;;;;4889919;29;20253;-79
2021/11/21 07:22:43;;;;;;;8.67;4.10;;;8.50;99.90;;;;;;4890189;29;20753;-80
2021/11/21 07:25:12;;;;;;;10.73;4.37;;;8.50;99.90;;;;;;4888033;29;20694;-79
2021/11/21 07:27:42;;;;;;;11.80;4.10;;;8.50;99.90;;;;;;4887392;29;20251;-80
2021/11/21 07:30:12;;;;;;;9.53;4.40;;;8.50;99.90;;;;;;4887439;29;20254;-79
2021/11/21 07:32:40;;;;;;;10.53;4.47;;;8.40;99.90;;;;;;4886810;29;20233;-80
2021/11/21 07:35:10;;;;;;;14.13;3.93;;;8.40;99.90;;;;;;4889536;29;20244;-80
2021/11/21 07:37:38;;;;;;;6.80;3.70;;;8.40;99.90;;;;;;4888602;29;20579;-79
2021/11/21 07:40:10;;;;;;;7.93;3.30;;;8.40;99.90;;;;;;4888354;29;20650;-80
2021/11/21 07:42:38;;;;;;;12.80;3.83;;;8.30;99.90;;;;;;4887465;29;20251;-81
2021/11/21 07:45:08;;;;;;;9.47;2.83;;;8.30;99.90;;;;;;4889486;29;20243;-80
2021/11/21 07:47:36;;;;;;;9.10;3.30;;;8.30;99.90;;;;;;4887678;29;20241;-79
2021/11/21 07:50:05;;;;;;;10.13;3.00;;;8.30;99.90;;;;;;4888622;29;20249;-80
2021/11/21 07:52:35;;;;;;;10.57;3.33;;;8.30;99.90;;;;;;4891461;29;21018;-80
2021/11/21 07:55:04;;;;;;;7.27;3.10;;;8.30;99.90;;;;;;4893412;29;22611;-80
2021/11/21 07:57:33;;;;;;;9.30;2.87;;;8.30;99.90;;;;;;4898764;29;20249;-79
2021/11/21 08:00:01;;;;;;;11.90;3.20;;;8.30;99.90;;;;;;4894573;29;20240;-79
2021/11/21 08:02:32;;;;;;;10.57;2.73;;;8.30;99.90;;;;;;4900111;29;20251;-81
2021/11/21 08:05:00;;;;;;;5.93;2.60;;;8.30;99.90;;;;;;4896703;29;20244;-81
2021/11/21 08:07:32;;;;;;;10.10;2.80;;;8.30;99.90;;;;;;4893279;29;20806;-81
2021/11/21 08:10:02;;;;;;;10.70;2.40;;;8.30;99.90;;;;;;4890375;29;20241;-81
2021/11/21 08:12:30;;;;;;;10.90;2.27;;;8.30;99.90;;;;;;4891250;29;20252;-81
2021/11/21 08:14:59;;;;;;;11.47;2.50;;;8.30;99.90;;;;;;4891411;29;20272;-80
2021/11/21 08:17:27;;;;;;;6.93;2.40;;;8.30;99.90;;;;;;4892372;29;20240;-80
2021/11/21 08:19:55;;;;;;;11.07;2.60;;;8.30;99.90;;;;;;4898238;29;20964;-81
2021/11/21 08:22:23;;;;;;;13.50;3.43;;;8.30;99.90;;;;;;4901105;29;20248;-80
2021/11/21 08:24:52;;;;;;;10.47;3.20;;;8.40;99.90;;;;;;4900306;29;20667;-80
2021/11/21 08:27:21;;;;;;;11.10;3.30;;;8.50;99.90;;;;;;4897794;29;20233;-81
2021/11/21 08:29:50;;;;;;;13.20;3.00;;;8.60;99.90;;;;;;4900184;29;20762;-82
2021/11/21 08:32:19;;;;;;;15.03;2.73;;;8.60;99.90;;;;;;4899798;29;20785;-82
2021/11/21 08:34:47;;;;;;;9.30;2.40;;;8.70;99.90;;;;;;4899754;29;20229;-81
2021/11/21 08:37:15;;;;;;;12.90;2.57;;;8.70;99.90;;;;;;4899927;29;20244;-81
2021/11/21 08:39:43;;;;;;;11.87;2.23;;;8.80;99.90;;;;;;4899970;29;21117;-81
2021/11/21 08:42:11;;;;;;;10.73;2.27;;;8.90;99.90;;;;;;4898227;29;20261;-81
2021/11/21 08:44:41;;;;;;;15.90;2.43;;;9.00;99.90;;;;;;4889074;29;20626;-81
2021/11/21 08:47:10;;;;;;;14.67;2.53;;;9.10;99.90;;;;;;4897969;29;20257;-81
2021/11/21 08:49:39;;;;;;;9.37;2.27;;;9.30;99.90;;;;;;4892576;29;20241;-81
2021/11/21 08:52:08;;;;;;;11.70;2.37;;;9.20;99.90;;;;;;4893331;29;20742;-81
2021/11/21 08:54:38;;;;;;;10.27;2.20;;;9.20;99.90;;;;;;4893040;29;20245;-81
2021/11/21 08:57:07;;;;;;;9.40;2.00;;;9.00;99.90;;;;;;4893987;29;20293;-81
2021/11/21 08:59:35;;;;;;;8.63;2.17;;;9.00;99.90;;;;;;4893435;29;20416;-81
2021/11/21 09:02:05;;;;;;;9.17;2.10;;;9.10;99.90;;;;;;4892923;29;20922;-81
2021/11/21 09:04:34;;;;;;;15.90;2.47;;;9.10;99.90;;;;;;4892891;29;20271;-81
2021/11/21 09:07:02;;;;;;;16.20;2.93;;;9.20;99.90;;;;;;4893402;29;20256;-81
2021/11/21 09:09:44;;;;;;;12.62;1.68;;;9.30;99.90;;;;;;3055135;29;10002232;-81
2021/11/21 09:12:12;;;;;;;10.27;2.30;;;9.40;99.90;;;;;;3201999;29;10001618;-81
2021/11/21 09:14:41;;;;;;;12.27;2.83;;;9.40;99.90;;;;;;4893271;29;20472;-82
2021/11/21 09:17:10;;;;;;;16.80;2.20;;;9.50;99.90;;;;;;4893764;29;20249;-82
2021/11/21 09:19:38;;;;;;;13.80;2.07;;;9.60;99.90;;;;;;4892108;29;20251;-82
2021/11/21 09:22:07;;;;;;;9.47;1.53;;;9.60;99.90;;;;;;4896324;29;20228;-82
2021/11/21 09:24:35;;;;;;;8.93;1.90;;;9.50;99.90;;;;;;4894725;29;20248;-79
2021/11/21 09:27:03;;;;;;;10.02;2.10;;;9.40;99.90;;;;;;4896679;29;20453;-79
2021/11/21 09:29:31;;;;;;;9.75;2.67;;;9.40;99.90;;;;;;4876442;29;20443;-80
2021/11/21 09:32:00;;;;;;;8.57;1.73;;;9.30;99.90;;;;;;4896371;29;20272;-80
2021/11/21 09:34:30;;;;;;;13.17;2.10;;;9.40;99.90;;;;;;4895844;29;20250;-80
2021/11/21 09:36:58;;;;;;;8.37;1.57;;;9.30;99.90;;;;;;4897805;29;20638;-80
2021/11/21 09:39:27;;;;;;;7.53;1.60;;;9.20;99.90;;;;;;4897365;29;20236;-78
2021/11/21 09:41:55;;;;;;;8.13;1.57;;;9.10;99.90;;;;;;4899393;29;20315;-80
2021/11/21 09:44:24;;;;;;;7.67;1.40;;;9.10;99.90;;;;;;4897853;29;20256;-80
2021/11/21 09:46:53;;;;;;;8.63;1.40;;;9.30;99.90;;;;;;4901097;29;20710;-80
2021/11/21 09:49:22;;;;;;;6.77;1.83;;;9.40;99.90;;;;;;4896436;29;20708;-80
2021/11/21 09:51:51;;;;;;;8.27;1.80;;;9.50;99.90;;;;;;4900489;29;20229;-79
2021/11/21 09:54:20;;;;;;;9.77;1.70;;;9.70;99.90;;;;;;4896712;29;20328;-79
2021/11/21 09:56:48;;;;;;;8.80;1.70;;;9.90;99.90;;;;;;4890855;29;20840;-79
2021/11/21 09:59:36;;;;;;;8.03;1.30;;;9.90;99.90;;;;;;4891162;29;20256;-79
2021/11/21 10:02:18;;;;;;;5.83;1.40;;;10.00;99.90;;;;;;4890984;29;20257;-77
2021/11/21 10:04:47;;;;;;;7.33;2.17;;;10.20;99.90;;;;;;4884250;29;20252;-79
2021/11/21 10:07:26;;;;;;;8.00;1.70;;;10.30;99.90;;;;;;4891883;29;20660;-80
2021/11/21 10:09:54;;;;;;;9.17;1.70;;;10.50;99.90;;;;;;4885548;29;20325;-80
2021/11/21 10:12:24;;;;;;;10.17;2.37;;;10.50;99.90;;;;;;4896547;29;20233;-79
2021/11/21 10:15:02;;;;;;;8.13;1.60;;;10.50;99.90;;;;;;4893145;29;20252;-80
2021/11/21 10:17:32;;;;;;;7.30;1.40;;;10.40;99.90;;;;;;4897884;29;20648;-80
2021/11/21 10:20:10;;;;;;;9.20;1.60;;;10.50;99.90;;;;;;4897738;29;20237;-80
2021/11/21 10:22:52;;;;;;;8.90;1.70;;;10.60;99.90;;;;;;4895848;29;20289;-80
2021/11/21 10:25:41;;;;;;;7.27;1.60;;;10.80;99.90;;;;;;4897769;29;20322;-80
2021/11/21 10:28:12;;;;;;;12.23;1.93;;;10.90;99.90;;;;;;4895519;29;20687;-79
2021/11/21 10:30:57;;;;;;;7.00;1.50;;;11.00;99.90;;;;;;4894741;29;20249;-79
2021/11/21 10:33:30;;;;;;;7.27;1.83;;;10.90;99.90;;;;;;4896508;29;20977;-79
2021/11/21 10:36:00;;;;;;;7.87;1.70;;;10.80;99.90;;;;;;4893451;29;20248;-79
2021/11/21 10:38:36;;;;;;;9.13;1.87;;;10.90;99.90;;;;;;4894925;29;20708;-79
2021/11/21 10:41:14;;;;;;;7.97;2.00;;;11.20;99.90;;;;;;4897903;29;20295;-79
2021/11/21 10:43:48;;;;;;;13.37;1.90;;;11.40;99.90;;;;;;4894657;29;20238;-79
2021/11/21 10:46:37;;;;;;;9.67;1.63;;;11.40;99.90;;;;;;4893253;29;20328;-80
2021/11/21 10:49:21;;;;;;;9.57;2.00;;;11.40;99.90;;;;;;4896379;29;20694;-80
2021/11/21 10:52:01;;;;;;;6.20;1.47;;;11.30;99.90;;;;;;4891196;29;20334;-79
2021/11/21 10:54:34;;;;;;;11.73;2.00;;;11.00;99.90;;;;;;4895588;29;20242;-79
2021/11/21 10:57:04;;;;;;;10.53;2.03;;;10.80;99.90;;;;;;4896313;29;20314;-79
2021/11/21 10:59:38;;;;;;;12.17;2.20;;;10.50;99.90;;;;;;4890760;29;20254;-79
2021/11/21 11:02:14;;;;;;;5.40;1.30;;;10.30;99.90;;;;;;4890028;29;20237;-78
2021/11/21 11:04:58;;;;;;;8.83;2.33;;;10.10;99.90;;;;;;4890103;29;20257;-79
2021/11/21 11:07:28;;;;;;;8.60;2.00;;;10.20;99.90;;;;;;4859195;29;20246;-79
2021/11/21 11:10:07;;;;;;;11.89;1.98;;;10.20;99.90;;;;;;1184786;29;10023057;-81
2021/11/21 11:12:36;;;;;;;9.30;1.50;;;10.10;99.90;;;;;;4889914;29;20441;-81
2021/11/21 11:15:05;;;;;;;7.23;1.50;;;10.00;99.90;;;;;;4893787;29;20707;-81
2021/11/21 11:17:34;;;;;;;9.03;1.53;;;10.10;99.90;;;;;;4891947;29;20277;-81
2021/11/21 11:20:05;;;;;;;5.83;1.50;;;10.20;99.90;;;;;;4891256;29;20246;-81
2021/11/21 11:22:34;;;;;;;5.30;1.20;;;10.40;99.90;;;;;;4889572;29;20813;-81
2021/11/21 11:25:07;;;;;;;5.83;1.33;;;10.50;99.90;;;;;;4878717;29;20246;-82
2021/11/21 11:27:47;;;;;;;4.53;0.97;;;10.50;99.90;;;;;;4891385;29;20244;-81
2021/11/21 11:30:18;;;;;;;6.23;1.20;;;10.50;99.90;;;;;;4887618;29;20773;-81
2021/11/21 11:32:47;;;;;;;4.83;1.07;;;10.40;99.90;;;;;;4887890;29;20238;-82
2021/11/21 11:35:32;;;;;;;6.10;1.43;;;10.50;99.90;;;;;;4891413;29;20329;-81
2021/11/21 11:38:19;;;;;;;6.57;1.20;;;10.60;99.90;;;;;;4888918;29;20323;-81
2021/11/21 11:40:56;;;;;;;9.43;1.40;;;10.70;99.90;;;;;;4894638;29;20242;-81
2021/11/21 11:43:37;;;;;;;6.90;1.90;;;10.80;99.90;;;;;;4887598;29;20268;-81
2021/11/21 11:46:11;;;;;;;7.90;1.33;;;10.90;99.90;;;;;;4873883;29;20934;-80
2021/11/21 11:48:48;;;;;;;7.00;1.53;;;10.80;99.90;;;;;;4890763;29;20729;-80
2021/11/21 11:51:21;;;;;;;7.10;1.57;;;10.80;99.90;;;;;;4896951;29;20309;-81
2021/11/21 11:53:50;;;;;;;10.93;1.70;;;10.70;99.90;;;;;;4893973;29;20353;-80
2021/11/21 11:56:24;;;;;;;7.10;1.63;;;10.60;99.90;;;;;;4898080;29;20963;-80
2021/11/21 11:58:55;;;;;;;6.53;1.40;;;10.50;99.90;;;;;;4896886;29;20233;-80
2021/11/21 12:01:55;;;;;;;8.23;1.50;;;10.30;99.90;;;;;;4893368;29;20333;-80
2021/11/21 12:04:59;;;;;;;5.67;1.53;;;10.30;99.90;;;;;;4894061;29;20945;-80
2021/11/21 12:07:30;;;;;;;11.70;1.80;;;10.20;99.90;;;;;;4892617;29;20236;-80
2021/11/21 12:10:02;;;;;;;8.80;1.87;;;10.20;99.90;;;;;;4897366;29;20234;-80
2021/11/21 12:12:55;;;;;;;7.83;1.40;;;10.20;99.90;;;;;;4889926;29;20265;-80
2021/11/21 12:15:31;;;;;;;5.70;1.30;;;10.20;99.90;;;;;;4875575;29;20729;-80
2021/11/21 12:18:01;;;;;;;5.17;1.17;;;10.30;99.90;;;;;;4873386;29;20313;-80
2021/11/21 12:20:50;;;;;;;6.90;1.50;;;10.40;99.90;;;;;;4875377;29;20241;-80
2021/11/21 12:24:09;;;;;;;5.27;1.07;;;10.40;99.90;;;;;;4875207;29;20595;-80
2021/11/21 12:26:40;;;;;;;5.78;1.20;;;10.60;99.90;;;;;;4874643;29;20545;-80
2021/11/21 12:29:35;;;;;;;5.13;1.57;;;10.60;99.90;;;;;;4874054;29;20250;-80
2021/11/21 12:32:25;;;;;;;6.10;1.20;;;10.70;99.90;;;;;;4876439;29;20237;-81
2021/11/21 12:34:54;;;;;;;5.47;1.27;;;10.80;99.90;;;;;;4876125;29;20342;-80
2021/11/21 12:37:39;;;;;;;5.97;1.30;;;10.80;99.90;;;;;;4875586;29;20253;-80
2021/11/21 12:40:13;;;;;;;5.60;1.53;;;10.90;99.90;;;;;;4880346;29;20297;-80
2021/11/21 12:42:43;;;;;;;6.07;1.10;;;11.00;99.90;;;;;;4879227;29;20285;-80
2021/11/21 12:45:15;;;;;;;4.67;1.10;;;11.00;99.90;;;;;;4880092;29;20714;-80
2021/11/21 12:47:46;;;;;;;4.33;1.20;;;11.00;99.90;;;;;;4876024;29;21751;-80
2021/11/21 12:50:21;;;;;;;6.60;1.50;;;11.00;99.90;;;;;;4879156;29;20732;-81
2021/11/21 12:52:51;;;;;;;7.70;1.13;;;10.90;99.90;;;;;;4878440;29;20324;-80
2021/11/21 12:55:20;;;;;;;4.60;1.33;;;10.80;99.90;;;;;;4879744;29;20723;-80
2021/11/21 12:57:48;;;;;;;6.37;1.30;;;10.80;99.90;;;;;;4875822;29;20345;-79
2021/11/21 13:00:22;;;;;;;6.57;1.30;;;10.60;99.90;;;;;;4884379;29;20244;-79
2021/11/21 13:03:03;;;;;;;4.77;1.30;;;10.40;99.90;;;;;;4888419;29;20742;-80
2021/11/21 13:05:36;;;;;;;5.37;1.07;;;10.30;99.90;;;;;;4891443;29;20294;-79
2021/11/21 13:08:13;;;;;;;7.50;1.47;;;10.30;99.90;;;;;;4892793;29;20278;-80
2021/11/21 13:10:42;;;;;;;3.17;1.00;;;10.30;99.90;;;;;;4891615;29;20348;-80